Litchfield, IL

2:56 PM CDT on March 27, 2017 (GMT -0500)
Litchfield

Weather History for K3LF - December, 2012

Change the Weather History Date:

Sunday, December 9, 2012

  Actual Average (KALN) Record (KALN)
Temperature  
Mean Temperature 44 °F -  
Max Temperature 50 °F 43 °F 59 °F (2003)
Min Temperature 39 °F 29 °F 1 °F (2005)
Degree Days  
Heating Degree Days 20    
Moisture  
Dew Point 44 °F    
Average Humidity 93    
Maximum Humidity 98    
Minimum Humidity 83    
Precipitation  
Precipitation 0.43 in - - ()
Sea Level Pressure  
Sea Level Pressure 29.83 in    
Wind  
Wind Speed 8 mph (WNW)    
Max Wind Speed 15 mph    
Max Gust Speed 25 mph    
Visibility 5 miles    
Events Fog , Rain , Thunderstorm    
Averages and records for this station are not official NWS values.
T = Trace of Precipitation, MM = Missing Value Source: NWS Daily Summary

Daily Weather History Graph

Daily Weather History Graph

Search for Another Location

Airport or City:

Trip Planner

Search our weather history database for the weather conditions in past years. The results will help you decide how hot, cold, wet, or windy it might be!

Date:

Astronomy

Dec. 09, 2012 Rise Set
Actual Time 7:06 AM CST 4:35 PM CST
Civil Twilight 6:36 AM CST 5:05 PM CST
Nautical Twilight 6:03 AM CST 5:39 PM CST
Astronomical Twilight 5:30 AM CST 6:11 PM CST
Moon 2:40 AM CST (12/9) 1:41 PM CST (12/9)
Length of Visible Light 10h 28m
Length of Day
9h 29m
Waning Crescent, 18% of the Moon is Illuminated
Dec 9
Waning Crescent
Dec 13
New
Dec 19
First Quarter
Dec 28
Full
Jan 4
Last Quarter

Hourly Weather History & Observations

Time (CST) Temp. Windchill Dew Point Humidity Pressure Visibility Wind Dir Wind Speed Gust Speed Precip Events Conditions
12:15 AM 42.8 °F 38.0 °F 40.5 °F 91% 29.96 in 5.0 mi East 8.1 mph - N/A   Overcast
12:35 AM 42.8 °F 38.0 °F 41.0 °F 93% 29.95 in 4.0 mi East 8.1 mph - N/A   Overcast
12:55 AM 42.8 °F 38.0 °F 41.0 °F 93% 29.95 in 3.0 mi East 8.1 mph - N/A Rain Light Rain
1:15 AM 42.8 °F 38.0 °F 41.2 °F 94% 29.93 in 3.0 mi East 8.1 mph - N/A Rain Light Rain
1:35 AM 42.8 °F 37.5 °F 41.4 °F 95% 29.91 in 3.0 mi East 9.2 mph - N/A Rain Light Rain
1:55 AM 42.8 °F 38.6 °F 41.7 °F 96% 29.91 in 4.0 mi East 6.9 mph - N/A   Overcast
2:15 AM 43.2 °F 37.4 °F 41.9 °F 95% 29.90 in 4.0 mi East 10.4 mph - N/A Rain Light Rain
2:35 AM 43.2 °F 37.9 °F 41.9 °F 95% 29.90 in 2.5 mi East 9.2 mph - N/A Rain , Thunderstorm Light Thunderstorms and Rain
2:55 AM 43.3 °F 41.7 °F 42.1 °F 95% 29.91 in 1.8 mi SSE 3.5 mph - N/A Thunderstorm Thunderstorm
3:15 AM 43.7 °F 38.6 °F 42.4 °F 95% 29.88 in 2.5 mi ENE 9.2 mph - 0.01 in Rain , Thunderstorm Thunderstorms and Rain
3:35 AM 43.7 °F 39.1 °F 42.6 °F 96% 29.87 in 2.0 mi ENE 8.1 mph - 0.02 in Rain Light Rain
3:55 AM 43.9 °F 38.3 °F 42.8 °F 96% 29.86 in 2.5 mi East 10.4 mph - 0.02 in Rain Light Rain
4:15 AM 44.8 °F 43.3 °F 43.7 °F 96% 29.85 in 5.0 mi NE 3.5 mph - 0.01 in Rain Rain
4:35 AM 45.1 °F - 44.1 °F 96% 29.86 in 3.0 mi Calm Calm - 0.03 in Rain Rain
4:55 AM 46.2 °F 43.3 °F 45.0 °F 95% 29.85 in 10.0 mi East 5.8 mph - 0.04 in Rain Rain
5:15 AM 46.0 °F 42.5 °F 44.6 °F 95% 29.85 in 10.0 mi East 6.9 mph - 0.02 in Thunderstorm Overcast
5:35 AM 45.9 °F 42.9 °F 44.6 °F 95% 29.84 in 10.0 mi ESE 5.8 mph - 0.03 in   Overcast
5:55 AM 45.7 °F 42.0 °F 44.2 °F 95% 29.83 in 7.0 mi East 6.9 mph - 0.05 in Rain Rain
6:15 AM 45.5 °F 42.5 °F 44.2 °F 95% 29.83 in 5.0 mi ESE 5.8 mph - 0.02 in Rain Light Rain
6:35 AM 45.5 °F 41.3 °F 44.2 °F 95% 29.83 in 5.0 mi ESE 8.1 mph - 0.03 in   Overcast
6:55 AM 45.5 °F 44.2 °F 44.2 °F 95% 29.84 in 5.0 mi SE 3.5 mph - 0.05 in   Overcast
7:15 AM 45.5 °F 44.2 °F 44.4 °F 96% 29.84 in 2.0 mi SSE 3.5 mph - 0.01 in   Overcast
7:35 AM 45.5 °F - 44.6 °F 97% 29.84 in 0.8 mi Calm Calm - 0.02 in   Overcast
7:55 AM 45.7 °F 44.4 °F 44.8 °F 97% 29.83 in 0.8 mi ESE 3.5 mph - 0.03 in   Overcast
8:35 AM 46.0 °F 44.8 °F 45.1 °F 97% 29.83 in 0.8 mi SE 3.5 mph - 0.01 in   Overcast
8:55 AM 46.2 °F 44.1 °F 45.3 °F 97% 29.84 in 1.0 mi SE 4.6 mph - 0.02 in   Overcast
9:15 AM 46.4 °F 42.9 °F 45.5 °F 97% 29.85 in 0.5 mi SSE 6.9 mph - 0.01 in Fog Fog
9:35 AM 46.6 °F - 45.7 °F 97% 29.84 in 0.2 mi SSE 5.8 mph - 0.02 in Fog Fog
9:55 AM 46.9 °F - 46.4 °F 98% 29.84 in 0.5 mi SSE 6.9 mph - 0.03 in Fog Fog
10:15 AM 47.5 °F - 46.8 °F 97% 29.83 in 1.0 mi SSE 4.6 mph - 0.01 in   Overcast
10:35 AM 48.2 °F - 47.3 °F 97% 29.81 in 1.8 mi SSE 6.9 mph - 0.02 in   Overcast
10:55 AM 48.6 °F - 48.0 °F 98% 29.80 in 2.5 mi South 8.1 mph - 0.03 in   Overcast
11:15 AM 48.9 °F - 48.2 °F 97% 29.80 in 2.5 mi South 6.9 mph - 0.01 in   Overcast
11:35 AM 49.1 °F - 48.4 °F 97% 29.82 in 2.5 mi SSW 13.8 mph - 0.01 in   Overcast
11:55 AM 49.1 °F - 48.2 °F 97% 29.81 in 2.0 mi SW 9.2 mph - 0.02 in Rain Rain
12:15 PM 49.8 °F - 48.9 °F 97% 29.79 in 2.5 mi SW 5.8 mph - N/A Rain Light Rain
12:35 PM 50.2 °F - 49.1 °F 96% 29.79 in 2.5 mi WSW 6.9 mph - 0.01 in   Overcast
12:55 PM 50.0 °F - 48.7 °F 95% 29.79 in 3.0 mi West 8.1 mph - 0.01 in   Overcast
1:15 PM 49.6 °F - 48.4 °F 95% 29.78 in 3.0 mi West 9.2 mph - 0.01 in   Overcast
1:35 PM 49.6 °F - 48.4 °F 95% 29.77 in 2.5 mi WNW 8.1 mph - 0.01 in   Overcast
1:55 PM 49.6 °F - 48.2 °F 95% 29.78 in 4.0 mi West 9.2 mph - 0.01 in   Overcast
2:35 PM 49.3 °F - 47.3 °F 93% 29.77 in 5.0 mi WNW 10.4 mph - 0.01 in   Overcast
2:55 PM 48.9 °F - 46.8 °F 92% 29.78 in 5.0 mi NW 11.5 mph - 0.02 in   Overcast
3:15 PM 47.8 °F - 45.9 °F 93% 29.77 in 5.0 mi NW 9.2 mph - N/A   Overcast
3:35 PM 47.3 °F - 45.5 °F 93% 29.78 in 5.0 mi NW 10.4 mph - N/A   Overcast
3:55 PM 47.3 °F - 45.1 °F 92% 29.77 in 5.0 mi WNW 5.8 mph - 0.01 in Rain Light Rain
4:15 PM 46.8 °F - 45.0 °F 93% 29.79 in 5.0 mi West 6.9 mph - N/A Rain Light Rain
4:35 PM 46.4 °F 45.2 °F 44.8 °F 94% 29.78 in 5.0 mi WNW 3.5 mph - N/A Rain Light Rain
4:55 PM 46.4 °F 42.9 °F 45.0 °F 95% 29.79 in 7.0 mi NW 6.9 mph - 0.01 in   Overcast
5:15 PM 46.0 °F 41.9 °F 44.6 °F 95% 29.79 in 7.0 mi NW 8.1 mph - N/A   Overcast
5:55 PM 45.9 °F 41.2 °F 44.1 °F 93% 29.80 in 7.0 mi NW 9.2 mph - N/A   Overcast
6:15 PM 45.5 °F 39.9 °F 43.7 °F 93% 29.81 in 7.0 mi NW 11.5 mph - N/A   Overcast
6:35 PM 45.5 °F 39.9 °F 43.2 °F 92% 29.81 in 7.0 mi WNW 11.5 mph 17.3 mph N/A   Overcast
6:55 PM 44.8 °F 38.3 °F 42.8 °F 93% 29.81 in 7.0 mi NW 13.8 mph 18.4 mph N/A   Overcast
7:15 PM 44.2 °F 38.0 °F 41.9 °F 91% 29.83 in 10.0 mi NW 12.7 mph 19.6 mph N/A   Overcast
7:35 PM 44.1 °F 37.1 °F 41.4 °F 90% 29.83 in 10.0 mi NW 15.0 mph - N/A   Overcast
7:55 PM 44.1 °F 37.1 °F 40.8 °F 88% 29.82 in 10.0 mi NW 15.0 mph - N/A   Overcast
8:35 PM 43.2 °F 36.2 °F 39.2 °F 86% 29.83 in 10.0 mi NW 13.8 mph 20.7 mph 0.01 in   Overcast
8:55 PM 43.2 °F 37.0 °F 38.3 °F 83% 29.84 in 10.0 mi NW 11.5 mph 17.3 mph 0.01 in   Overcast
9:15 PM 42.8 °F 38.0 °F 38.5 °F 85% 29.84 in 10.0 mi NW 8.1 mph - N/A   Overcast
9:35 PM 42.4 °F 38.8 °F 37.9 °F 84% 29.84 in 10.0 mi WNW 5.8 mph - N/A   Mostly Cloudy
9:55 PM 41.7 °F 38.0 °F 37.9 °F 86% 29.83 in 10.0 mi WNW 5.8 mph - N/A   Scattered Clouds
10:15 PM 41.0 °F 38.0 °F 37.9 °F 89% 29.84 in 10.0 mi WNW 4.6 mph - 0.01 in   Clear
10:35 PM 40.6 °F 38.6 °F 38.1 °F 91% 29.84 in 10.0 mi West 3.5 mph - 0.01 in   Clear
10:55 PM 40.6 °F 36.0 °F 37.8 °F 89% 29.84 in 10.0 mi West 6.9 mph - 0.02 in   Scattered Clouds
11:15 PM 41.0 °F 33.9 °F 37.9 °F 89% 29.83 in 10.0 mi NW 12.7 mph - 0.01 in   Overcast
11:35 PM 39.4 °F 31.8 °F 34.7 °F 83% 29.84 in 10.0 mi WNW 12.7 mph 25.3 mph 0.03 in   Overcast
11:55 PM 39.0 °F 31.4 °F 34.2 °F 83% 29.85 in 10.0 mi NW 12.7 mph 19.6 mph 0.05 in   Overcast